Other Surface Observations
Issued by NWS Missoula, MT

Home | Current Version | Previous Version | Text Only | Print | Product List | Glossary On
Versions: 1 2 3 4 5 6 7 8 9 10 11 12 13 14 15 16 17 18 19 20 21 22 23 24 25 26 27 28 29 30 31 32 33 34 35 36 37 38 39 40 41 42 43 44 45 46 47 48 49 50
067
SXUS55 KMSO 071613
OSOMSO
MONTANA AWOS SUMMARY
NATIONAL WEATHER SERVICE MISSOULA MT
912 AM MST SUN FEB 7 2016

Montana AWOS Reports

LAUREL      |K6S8 071555Z AUTO 27007KT 40SM 00/M11 A3036 RMK AO1 T00001110
EKALAKA     |K97M 071555Z AUTO 29025G33KT 40SM M01/M12 A3014 RMK AO1 T10101121
SCOBEY      |K9S2 071555Z AUTO 29023G30KT 40SM M02/M11 A3012 RMK AO1 T10211105




USA.gov is the U.S. government's official web portal to all federal, state and local government web resources and services.